Pride Of Kent — MQCJ2 — position and weather

sailwx.info

Track history (hours):
 
Tides and Currents Weather Stations Pressure Air Temp Water Temp Dewpoint Dewpoint Depression Visibility Wind Speed Wind Dir Waves Ship Positions

Pride Of Kent

Operator: P & O Ferries

Last reported at 2015-Apr-19 00:33 UTC. Time now 2015-Apr-19 01:10 UTC.
Position N 51°06' E 001°28'.

Length 180 m; draft 6 m.

Type: Passenger vessel. MMSI: 232009000.

Date/timePositionNaut miles runAvg speedWind from/ knotsBaromVisibWave heightAir tempDewpointWater temp
2015-Apr-19 00:33N 51°06' E 001°28'1616.3
2015-Apr-18 23:34N 50°58' E 001°51'0 0.1
2015-Apr-18 22:32N 50°58' E 001°51'1414.0
2015-Apr-18 21:34N 51°03' E 001°31'8 8.0
2015-Apr-18 20:33N 51°07' E 001°20'9 8.8
2015-Apr-18 19:34N 51°03' E 001°32'1312.9
2015-Apr-18 18:33N 50°58' E 001°51'2 2.1
2015-Apr-18 17:34N 50°58' E 001°48'1515.5
2015-Apr-18 16:34N 51°05' E 001°25'4 4.2
2015-Apr-18 15:33N 51°07' E 001°20'1717.6
2015-Apr-18 14:33N 50°58' E 001°44'4 4.4
2015-Apr-18 13:33N 50°58' E 001°51'1212.5
2015-Apr-18 12:34N 50°60' E 001°31'10 7.8
2015-Apr-18 11:13N 51°07' E 001°20'6 9.1
2015-Apr-18 10:34N 51°05' E 001°29'1615.6
2015-Apr-18 09:34N 50°58' E 001°51'3 3.0
2015-Apr-18 08:34N 50°58' E 001°46'1615.8
2015-Apr-18 07:33N 51°06' E 001°24'3 2.4
2015-Apr-18 06:16N 51°07' E 001°20'912.8
2015-Apr-18 05:33N 51°03' E 001°33'1312.5
2015-Apr-18 04:33N 50°58' E 001°51'5 4.7
2015-Apr-18 03:33N 50°58' E 001°44'1413.8
2015-Apr-18 02:33N 51°06' E 001°25'3 1.5
2015-Apr-18 00:33N 51°07' E 001°21'1817.7
2015-Apr-17 23:33N 50°58' E 001°45'3 3.4
2015-Apr-17 22:33N 50°58' E 001°51'1817.6
2015-Apr-17 21:34N 51°05' E 001°25'4 3.6
2015-Apr-17 20:31N 51°07' E 001°20'1616.5
2015-Apr-17 19:34N 50°59' E 001°42'6 6.2
2015-Apr-17 18:33N 50°58' E 001°52'8 7.9
2015-Apr-17 17:34N 50°59' E 001°39'12 6.0
2015-Apr-17 15:33N 51°07' E 001°25'1818.4
2015-Apr-17 14:34N 50°58' E 001°51'0 0.4
2015-Apr-17 13:33N 50°58' E 001°51'1515.4
2015-Apr-17 12:33N 51°05' E 001°29'6 5.5
2015-Apr-17 11:24N 51°07' E 001°20'1012.3
2015-Apr-17 10:33N 51°04' E 001°36'1111.1
2015-Apr-17 09:32N 50°58' E 001°51'3 3.5
2015-Apr-17 08:33N 50°58' E 001°45'1616.0
2015-Apr-17 07:33N 51°06' E 001°23'3 2.2
2015-Apr-17 06:20N 51°07' E 001°20'1113.8
2015-Apr-17 05:33N 51°02' E 001°35'1110.9
2015-Apr-17 04:33N 50°58' E 001°51'4 4.4
2015-Apr-17 03:33N 50°58' E 001°44'1414.2
2015-Apr-17 02:33N 51°05' E 001°25'4 3.3
2015-Apr-17 01:27N 51°07' E 001°20'5 5.2
2015-Apr-17 00:33N 51°07' E 001°27'1515.3
2015-Apr-16 23:34N 50°58' E 001°48'2 2.0
2015-Apr-16 22:33N 50°58' E 001°51'1514.8
2015-Apr-16 21:33N 51°03' E 001°28'7 6.7
2015-Apr-16 20:31N 51°07' E 001°20'9 9.8
2015-Apr-16 19:33N 51°03' E 001°34'1312.5
2015-Apr-16 18:34N 50°58' E 001°52'4 3.5
2015-Apr-16 17:33N 50°58' E 001°46'1716.6
2015-Apr-16 16:34N 51°06' E 001°23'2 2.2
2015-Apr-16 15:33N 51°07' E 001°20'1616.2
2015-Apr-16 14:33N 50°59' E 001°42'6 5.7
2015-Apr-16 13:33N 50°58' E 001°51'1111.0
2015-Apr-16 12:33N 51°01' E 001°34'11 8.6
2015-Apr-16 11:16N 51°07' E 001°20'810.9
2015-Apr-16 10:33N 51°05' E 001°32'1413.8
2015-Apr-16 09:33N 50°58' E 001°51'3 2.9
2015-Apr-16 08:33N 50°58' E 001°46'1717.0
2015-Apr-16 07:33N 51°06' E 001°23'2 1.9
2015-Apr-16 06:22N 51°07' E 001°20'1114.3
2015-Apr-16 05:34N 51°02' E 001°36'1010.1
2015-Apr-16 04:33N 50°58' E 001°51'3 3.2
2015-Apr-16 03:33N 50°58' E 001°46'1514.7
2015-Apr-16 02:33N 51°06' E 001°26'4 4.0
2015-Apr-16 01:30N 51°07' E 001°20'5 5.3
2015-Apr-16 00:33N 51°06' E 001°28'1616.3
2015-Apr-15 23:34N 50°58' E 001°51'0 0.2
2015-Apr-15 22:34N 50°58' E 001°51'1615.8
2015-Apr-15 21:33N 51°04' E 001°28'6 5.8
2015-Apr-15 20:33N 51°07' E 001°20'1010.4
2015-Apr-15 19:34N 51°02' E 001°34'1211.6
2015-Apr-15 18:34N 50°58' E 001°52'3 3.4
2015-Apr-15 17:33N 50°58' E 001°46'1615.7
2015-Apr-15 16:34N 51°05' E 001°24'3 3.1
2015-Apr-15 15:27N 51°07' E 001°20'1416.0
2015-Apr-15 14:33N 51°00' E 001°40'8 7.5
2015-Apr-15 13:34N 50°58' E 001°51'9 8.8
2015-Apr-15 12:34N 50°60' E 001°37'10 4.9
2015-Apr-15 10:34N 51°06' E 001°26'1717.0
2015-Apr-15 09:34N 50°58' E 001°50'1 0.7
2015-Apr-15 08:34N 50°58' E 001°51'1716.8
2015-Apr-15 07:33N 51°04' E 001°26'5 4.9
2015-Apr-15 06:33N 51°07' E 001°20'1110.9
2015-Apr-15 05:33N 51°02' E 001°35'1110.8
2015-Apr-15 04:33N 50°58' E 001°51'3 3.2
2015-Apr-15 03:34N 50°58' E 001°46'1514.8
2015-Apr-15 02:33N 51°05' E 001°25'4 3.4
2015-Apr-15 01:21N 51°07' E 001°20'6 7.4
2015-Apr-15 00:33N 51°05' E 001°29'1514.6
2015-Apr-14 23:34N 50°58' E 001°49'1 1.1
2015-Apr-14 22:33N 50°58' E 001°51'1414.1
2015-Apr-14 21:33N 51°04' E 001°30'8 7.3
2015-Apr-14 20:31N 51°07' E 001°20'7 7.6
2015-Apr-14 19:34N 51°06' E 001°32'1514.6
2015-Apr-14 18:34N 50°58' E 001°51'3 2.5
2015-Apr-14 17:34N 50°58' E 001°47'1817.9
2015-Apr-14 16:33N 51°07' E 001°22'1 1.2
2015-Apr-14 15:29N 51°07' E 001°20'1717.9
2015-Apr-14 14:34N 50°59' E 001°43'5 5.0
2015-Apr-14 13:33N 50°58' E 001°51'1312.9
2015-Apr-14 12:33N 51°03' E 001°32'9 8.3
2015-Apr-14 11:30N 51°07' E 001°20'9 9.5
2015-Apr-14 10:34N 51°04' E 001°33'1312.7
2015-Apr-14 09:33N 50°58' E 001°51'3 3.0
2015-Apr-14 08:33N 50°58' E 001°46'1616.3
2015-Apr-14 07:34N 51°07' E 001°24'3 2.7
2015-Apr-14 06:33N 51°07' E 001°20'1111.0
2015-Apr-14 05:33N 51°02' E 001°35'1110.8
2015-Apr-14 04:34N 50°58' E 001°51'2 1.8
2015-Apr-14 03:33N 50°58' E 001°48'1616.0
2015-Apr-14 02:34N 51°04' E 001°25'4 4.4
2015-Apr-14 01:33N 51°07' E 001°20'8 7.8
2015-Apr-14 00:33N 51°03' E 001°31'1413.8
2015-Apr-13 23:33N 50°58' E 001°51'6 5.8
2015-Apr-13 22:34N 50°58' E 001°42'1615.5
2015-Apr-13 21:30N 51°07' E 001°20'1 1.5
2015-Apr-13 20:34N 51°07' E 001°22'9 9.2
2015-Apr-13 19:33N 51°02' E 001°34'1211.8
2015-Apr-13 18:33N 50°58' E 001°52'6 5.8
2015-Apr-13 17:34N 50°58' E 001°42'1713.7
2015-Apr-13 16:20N 51°07' E 001°20'1 1.5
2015-Apr-13 15:33N 51°07' E 001°22'1919.0
2015-Apr-13 14:33N 50°58' E 001°48'2 1.7
2015-Apr-13 13:34N 50°58' E 001°51'1312.7
2015-Apr-13 12:33N 51°02' E 001°32'9 6.5
2015-Apr-13 11:09N 51°07' E 001°20'814.1
2015-Apr-13 10:33N 51°04' E 001°32'1313.1
2015-Apr-13 09:33N 50°58' E 001°51'4 4.3
2015-Apr-13 08:33N 50°58' E 001°44'1514.8
2015-Apr-13 07:34N 51°06' E 001°25'3 3.1
2015-Apr-13 06:31N 51°07' E 001°20'1313.9
2015-Apr-13 05:34N 51°01' E 001°39'8 7.7
2015-Apr-13 04:29N 50°58' E 001°51'2 1.9
2015-Apr-13 03:33N 50°58' E 001°48'1515.1
2015-Apr-13 02:34N 51°04' E 001°26'5 3.3
2015-Apr-13 01:03N 51°07' E 001°20'612.7
2015-Apr-13 00:33N 51°06' E 001°30'1414.0
2015-Apr-12 23:33N 50°58' E 001°49'1 1.5
2015-Apr-12 22:33N 50°58' E 001°51'1211.6
2015-Apr-12 21:34N 51°02' E 001°33'10 7.1
2015-Apr-12 20:08N 51°07' E 001°20'814.5
2015-Apr-12 19:33N 51°04' E 001°32'1313.2
2015-Apr-12 18:33N 50°58' E 001°51'2 1.5
2015-Apr-12 17:34N 50°58' E 001°49'1818.3
2015-Apr-12 16:33N 51°06' E 001°23'2 1.7
2015-Apr-12 15:33N 51°07' E 001°20'1616.6
2015-Apr-12 14:33N 50°59' E 001°43'5 5.3
2015-Apr-12 13:34N 50°58' E 001°51'1111.4
2015-Apr-12 12:33N 51°01' E 001°34'10 8.5
2015-Apr-12 11:20N 51°07' E 001°20'810.0
2015-Apr-12 10:34N 51°04' E 001°32'1413.8
2015-Apr-12 09:33N 50°58' E 001°51'3 3.3
2015-Apr-12 08:33N 50°58' E 001°46'1918.6
2015-Apr-12 07:33N 51°07' E 001°20'0 0.2
2015-Apr-12 06:33N 51°07' E 001°20'4 4.3
2015-Apr-12 05:33N 51°07' E 001°27'1717.3
2015-Apr-12 04:33N 50°58' E 001°51'0 0.3
2015-Apr-12 03:32N 50°58' E 001°51'1616.4
2015-Apr-12 02:33N 51°04' E 001°27'6 5.7
2015-Apr-12 01:34N 51°07' E 001°20'6 6.0
2015-Apr-12 00:34N 51°05' E 001°29'1414.2
2015-Apr-11 23:33N 50°58' E 001°49'1 1.2
2015-Apr-11 22:33N 50°58' E 001°51'1716.6
2015-Apr-11 21:34N 51°04' E 001°26'5 4.7
2015-Apr-11 20:29N 51°07' E 001°20'910.0
2015-Apr-11 19:33N 51°03' E 001°33'1212.4
2015-Apr-11 18:33N 50°58' E 001°51'3 3.1
2015-Apr-11 17:33N 50°58' E 001°46'1717.4
2015-Apr-11 16:33N 51°07' E 001°22'1 1.4
2015-Apr-11 15:32N 51°07' E 001°20'1616.8
2015-Apr-11 14:33N 50°59' E 001°43'5 5.2
2015-Apr-11 13:32N 50°58' E 001°51'1010.4
2015-Apr-11 12:33N 51°01' E 001°35'12 8.1
2015-Apr-11 11:07N 51°07' E 001°20'712.7
2015-Apr-11 10:33N 51°05' E 001°31'1514.6
2015-Apr-11 09:33N 50°58' E 001°51'2 2.4
2015-Apr-11 08:33N 50°58' E 001°47'1817.6
2015-Apr-11 07:33N 51°07' E 001°23'2 1.8
2015-Apr-11 06:31N 51°07' E 001°20'1212.0
2015-Apr-11 05:33N 51°02' E 001°36'10 9.6
2015-Apr-11 04:31N 50°58' E 001°51'2 2.0
2015-Apr-11 03:33N 50°58' E 001°48'1615.9
2015-Apr-11 02:33N 51°05' E 001°25'4 2.7
2015-Apr-11 01:06N 51°07' E 001°20'5 9.9
2015-Apr-11 00:34N 51°07' E 001°29'1414.1
2015-Apr-10 23:34N 50°58' E 001°46'3 2.8
2015-Apr-10 22:34N 50°58' E 001°50'1414.0
2015-Apr-10 21:33N 51°03' E 001°29'7 6.6
2015-Apr-10 20:27N 51°07' E 001°20'7 8.1
2015-Apr-10 19:33N 51°05' E 001°31'1514.8
2015-Apr-10 18:33N 50°58' E 001°52'3 2.9
2015-Apr-10 17:33N 50°58' E 001°47'1817.8
2015-Apr-10 16:34N 51°07' E 001°22'2 1.6
2015-Apr-10 15:33N 51°07' E 001°20'1717.5
2015-Apr-10 14:33N 50°58' E 001°44'4 4.2
2015-Apr-10 13:32N 50°58' E 001°51'1313.0
2015-Apr-10 12:33N 51°02' E 001°32'9 8.9
2015-Apr-10 11:32N 51°07' E 001°20'7 7.0
2015-Apr-10 10:33N 51°04' E 001°30'1514.8
2015-Apr-10 09:33N 50°58' E 001°51'2 2.3
2015-Apr-10 08:33N 50°58' E 001°47'1616.3
2015-Apr-10 07:34N 51°06' E 001°24'3 3.1
2015-Apr-10 06:33N 51°07' E 001°20'1010.5
2015-Apr-10 05:33N 51°03' E 001°35'1111.2
2015-Apr-10 04:33N 50°58' E 001°51'0 0.2
2015-Apr-10 03:33N 50°58' E 001°51'1717.4
2015-Apr-10 02:33N 51°04' E 001°25'4 4.0
2015-Apr-10 01:30N 51°07' E 001°20'4 4.2
2015-Apr-10 00:33N 51°06' E 001°26'1717.3
2015-Apr-09 23:34N 50°58' E 001°50'3 3.1
2015-Apr-09 22:33N 50°58' E 001°45'1818.0
2015-Apr-09 21:33N 51°07' E 001°21'2 1.7
2015-Apr-09 20:34N 51°07' E 001°24'1918.6
2015-Apr-09 19:34N 50°58' E 001°50'1 1.3
2015-Apr-09 18:34N 50°58' E 001°52'1313.3
2015-Apr-09 17:33N 51°01' E 001°31'9 8.5
2015-Apr-09 16:29N 51°07' E 001°20'4 4.9
2015-Apr-09 15:34N 51°07' E 001°27'1716.7
2015-Apr-09 14:34N 50°58' E 001°50'1 0.5
2015-Apr-09 13:33N 50°58' E 001°51'1414.0
2015-Apr-09 12:33N 51°03' E 001°30'8 6.8
2015-Apr-09 11:25N 51°07' E 001°20'1214.1
2015-Apr-09 10:33N 51°01' E 001°37'10 9.6
2015-Apr-09 09:33N 50°58' E 001°51'4 4.0
2015-Apr-09 08:34N 50°58' E 001°45'1716.7
2015-Apr-09 07:34N 51°07' E 001°22'1 1.4
2015-Apr-09 06:31N 51°07' E 001°20'1212.2
2015-Apr-09 05:33N 51°02' E 001°36'10 9.3
2015-Apr-09 04:29N 50°58' E 001°51'2 1.9
2015-Apr-09 03:33N 50°58' E 001°48'1817.7
2015-Apr-09 02:33N 51°06' E 001°23'2 1.9
2015-Apr-09 01:23N 51°07' E 001°20'810.0
2015-Apr-09 00:33N 51°07' E 001°33'  
Track history (hours):
 
Tides and Currents Weather Stations Pressure Air Temp Water Temp Dewpoint Dewpoint Depression Visibility Wind Speed Wind Dir Waves Ship Positions

Pride Of Kent

Operator: P & O Ferries

Last reported at 2015-Apr-19 00:33 UTC. Time now 2015-Apr-19 01:10 UTC.
Position N 51°06' E 001°28'.

Length 180 m; draft 6 m.

Type: Passenger vessel. MMSI: 232009000.

Date/timePositionNaut miles runAvg speedWind from/ knotsBaromVisibWave heightAir tempDewpointWater temp
2015-Apr-19 00:33N 51°06' E 001°28'1616.3
2015-Apr-18 23:34N 50°58' E 001°51'0 0.1
2015-Apr-18 22:32N 50°58' E 001°51'1414.0
2015-Apr-18 21:34N 51°03' E 001°31'8 8.0
2015-Apr-18 20:33N 51°07' E 001°20'9 8.8
2015-Apr-18 19:34N 51°03' E 001°32'1312.9
2015-Apr-18 18:33N 50°58' E 001°51'2 2.1
2015-Apr-18 17:34N 50°58' E 001°48'1515.5
2015-Apr-18 16:34N 51°05' E 001°25'4 4.2
2015-Apr-18 15:33N 51°07' E 001°20'1717.6
2015-Apr-18 14:33N 50°58' E 001°44'4 4.4
2015-Apr-18 13:33N 50°58' E 001°51'1212.5
2015-Apr-18 12:34N 50°60' E 001°31'10 7.8
2015-Apr-18 11:13N 51°07' E 001°20'6 9.1
2015-Apr-18 10:34N 51°05' E 001°29'1615.6
2015-Apr-18 09:34N 50°58' E 001°51'3 3.0
2015-Apr-18 08:34N 50°58' E 001°46'1615.8
2015-Apr-18 07:33N 51°06' E 001°24'3 2.4
2015-Apr-18 06:16N 51°07' E 001°20'912.8
2015-Apr-18 05:33N 51°03' E 001°33'1312.5
2015-Apr-18 04:33N 50°58' E 001°51'5 4.7
2015-Apr-18 03:33N 50°58' E 001°44'1413.8
2015-Apr-18 02:33N 51°06' E 001°25'3 1.5
2015-Apr-18 00:33N 51°07' E 001°21'1817.7
2015-Apr-17 23:33N 50°58' E 001°45'3 3.4
2015-Apr-17 22:33N 50°58' E 001°51'1817.6
2015-Apr-17 21:34N 51°05' E 001°25'4 3.6
2015-Apr-17 20:31N 51°07' E 001°20'1616.5
2015-Apr-17 19:34N 50°59' E 001°42'6 6.2
2015-Apr-17 18:33N 50°58' E 001°52'8 7.9
2015-Apr-17 17:34N 50°59' E 001°39'12 6.0
2015-Apr-17 15:33N 51°07' E 001°25'1818.4
2015-Apr-17 14:34N 50°58' E 001°51'0 0.4
2015-Apr-17 13:33N 50°58' E 001°51'1515.4
2015-Apr-17 12:33N 51°05' E 001°29'6 5.5
2015-Apr-17 11:24N 51°07' E 001°20'1012.3
2015-Apr-17 10:33N 51°04' E 001°36'1111.1
2015-Apr-17 09:32N 50°58' E 001°51'3 3.5
2015-Apr-17 08:33N 50°58' E 001°45'1616.0
2015-Apr-17 07:33N 51°06' E 001°23'3 2.2
2015-Apr-17 06:20N 51°07' E 001°20'1113.8
2015-Apr-17 05:33N 51°02' E 001°35'1110.9
2015-Apr-17 04:33N 50°58' E 001°51'4 4.4
2015-Apr-17 03:33N 50°58' E 001°44'1414.2
2015-Apr-17 02:33N 51°05' E 001°25'4 3.3
2015-Apr-17 01:27N 51°07' E 001°20'5 5.2
2015-Apr-17 00:33N 51°07' E 001°27'1515.3
2015-Apr-16 23:34N 50°58' E 001°48'2 2.0
2015-Apr-16 22:33N 50°58' E 001°51'1514.8
2015-Apr-16 21:33N 51°03' E 001°28'7 6.7
2015-Apr-16 20:31N 51°07' E 001°20'9 9.8
2015-Apr-16 19:33N 51°03' E 001°34'1312.5
2015-Apr-16 18:34N 50°58' E 001°52'4 3.5
2015-Apr-16 17:33N 50°58' E 001°46'1716.6
2015-Apr-16 16:34N 51°06' E 001°23'2 2.2
2015-Apr-16 15:33N 51°07' E 001°20'1616.2
2015-Apr-16 14:33N 50°59' E 001°42'6 5.7
2015-Apr-16 13:33N 50°58' E 001°51'1111.0
2015-Apr-16 12:33N 51°01' E 001°34'11 8.6
2015-Apr-16 11:16N 51°07' E 001°20'810.9
2015-Apr-16 10:33N 51°05' E 001°32'1413.8
2015-Apr-16 09:33N 50°58' E 001°51'3 2.9
2015-Apr-16 08:33N 50°58' E 001°46'1717.0
2015-Apr-16 07:33N 51°06' E 001°23'2 1.9
2015-Apr-16 06:22N 51°07' E 001°20'1114.3
2015-Apr-16 05:34N 51°02' E 001°36'1010.1
2015-Apr-16 04:33N 50°58' E 001°51'3 3.2
2015-Apr-16 03:33N 50°58' E 001°46'1514.7
2015-Apr-16 02:33N 51°06' E 001°26'4 4.0
2015-Apr-16 01:30N 51°07' E 001°20'5 5.3
2015-Apr-16 00:33N 51°06' E 001°28'1616.3
2015-Apr-15 23:34N 50°58' E 001°51'0 0.2
2015-Apr-15 22:34N 50°58' E 001°51'1615.8
2015-Apr-15 21:33N 51°04' E 001°28'6 5.8
2015-Apr-15 20:33N 51°07' E 001°20'1010.4
2015-Apr-15 19:34N 51°02' E 001°34'1211.6
2015-Apr-15 18:34N 50°58' E 001°52'3 3.4
2015-Apr-15 17:33N 50°58' E 001°46'1615.7
2015-Apr-15 16:34N 51°05' E 001°24'3 3.1
2015-Apr-15 15:27N 51°07' E 001°20'1416.0
2015-Apr-15 14:33N 51°00' E 001°40'8 7.5
2015-Apr-15 13:34N 50°58' E 001°51'9 8.8
2015-Apr-15 12:34N 50°60' E 001°37'10 4.9
2015-Apr-15 10:34N 51°06' E 001°26'1717.0
2015-Apr-15 09:34N 50°58' E 001°50'1 0.7
2015-Apr-15 08:34N 50°58' E 001°51'1716.8
2015-Apr-15 07:33N 51°04' E 001°26'5 4.9
2015-Apr-15 06:33N 51°07' E 001°20'1110.9
2015-Apr-15 05:33N 51°02' E 001°35'1110.8
2015-Apr-15 04:33N 50°58' E 001°51'3 3.2
2015-Apr-15 03:34N 50°58' E 001°46'1514.8
2015-Apr-15 02:33N 51°05' E 001°25'4 3.4
2015-Apr-15 01:21N 51°07' E 001°20'6 7.4
2015-Apr-15 00:33N 51°05' E 001°29'1514.6
2015-Apr-14 23:34N 50°58' E 001°49'1 1.1
2015-Apr-14 22:33N 50°58' E 001°51'1414.1
2015-Apr-14 21:33N 51°04' E 001°30'8 7.3
2015-Apr-14 20:31N 51°07' E 001°20'7 7.6
2015-Apr-14 19:34N 51°06' E 001°32'1514.6
2015-Apr-14 18:34N 50°58' E 001°51'3 2.5
2015-Apr-14 17:34N 50°58' E 001°47'1817.9
2015-Apr-14 16:33N 51°07' E 001°22'1 1.2
2015-Apr-14 15:29N 51°07' E 001°20'1717.9
2015-Apr-14 14:34N 50°59' E 001°43'5 5.0
2015-Apr-14 13:33N 50°58' E 001°51'1312.9
2015-Apr-14 12:33N 51°03' E 001°32'9 8.3
2015-Apr-14 11:30N 51°07' E 001°20'9 9.5
2015-Apr-14 10:34N 51°04' E 001°33'1312.7
2015-Apr-14 09:33N 50°58' E 001°51'3 3.0
2015-Apr-14 08:33N 50°58' E 001°46'1616.3
2015-Apr-14 07:34N 51°07' E 001°24'3 2.7
2015-Apr-14 06:33N 51°07' E 001°20'1111.0
2015-Apr-14 05:33N 51°02' E 001°35'1110.8
2015-Apr-14 04:34N 50°58' E 001°51'2 1.8
2015-Apr-14 03:33N 50°58' E 001°48'1616.0
2015-Apr-14 02:34N 51°04' E 001°25'4 4.4
2015-Apr-14 01:33N 51°07' E 001°20'8 7.8
2015-Apr-14 00:33N 51°03' E 001°31'1413.8
2015-Apr-13 23:33N 50°58' E 001°51'6 5.8
2015-Apr-13 22:34N 50°58' E 001°42'1615.5
2015-Apr-13 21:30N 51°07' E 001°20'1 1.5
2015-Apr-13 20:34N 51°07' E 001°22'9 9.2
2015-Apr-13 19:33N 51°02' E 001°34'1211.8
2015-Apr-13 18:33N 50°58' E 001°52'6 5.8
2015-Apr-13 17:34N 50°58' E 001°42'1713.7
2015-Apr-13 16:20N 51°07' E 001°20'1 1.5
2015-Apr-13 15:33N 51°07' E 001°22'1919.0
2015-Apr-13 14:33N 50°58' E 001°48'2 1.7
2015-Apr-13 13:34N 50°58' E 001°51'1312.7
2015-Apr-13 12:33N 51°02' E 001°32'9 6.5
2015-Apr-13 11:09N 51°07' E 001°20'814.1
2015-Apr-13 10:33N 51°04' E 001°32'1313.1
2015-Apr-13 09:33N 50°58' E 001°51'4 4.3
2015-Apr-13 08:33N 50°58' E 001°44'1514.8
2015-Apr-13 07:34N 51°06' E 001°25'3 3.1
2015-Apr-13 06:31N 51°07' E 001°20'1313.9
2015-Apr-13 05:34N 51°01' E 001°39'8 7.7
2015-Apr-13 04:29N 50°58' E 001°51'2 1.9
2015-Apr-13 03:33N 50°58' E 001°48'1515.1
2015-Apr-13 02:34N 51°04' E 001°26'5 3.3
2015-Apr-13 01:03N 51°07' E 001°20'612.7
2015-Apr-13 00:33N 51°06' E 001°30'1414.0
2015-Apr-12 23:33N 50°58' E 001°49'1 1.5
2015-Apr-12 22:33N 50°58' E 001°51'1211.6
2015-Apr-12 21:34N 51°02' E 001°33'10 7.1
2015-Apr-12 20:08N 51°07' E 001°20'814.5
2015-Apr-12 19:33N 51°04' E 001°32'1313.2
2015-Apr-12 18:33N 50°58' E 001°51'2 1.5
2015-Apr-12 17:34N 50°58' E 001°49'1818.3
2015-Apr-12 16:33N 51°06' E 001°23'2 1.7
2015-Apr-12 15:33N 51°07' E 001°20'1616.6
2015-Apr-12 14:33N 50°59' E 001°43'5 5.3
2015-Apr-12 13:34N 50°58' E 001°51'1111.4
2015-Apr-12 12:33N 51°01' E 001°34'10 8.5
2015-Apr-12 11:20N 51°07' E 001°20'810.0
2015-Apr-12 10:34N 51°04' E 001°32'1413.8
2015-Apr-12 09:33N 50°58' E 001°51'3 3.3
2015-Apr-12 08:33N 50°58' E 001°46'1918.6
2015-Apr-12 07:33N 51°07' E 001°20'0 0.2
2015-Apr-12 06:33N 51°07' E 001°20'4 4.3
2015-Apr-12 05:33N 51°07' E 001°27'1717.3
2015-Apr-12 04:33N 50°58' E 001°51'0 0.3
2015-Apr-12 03:32N 50°58' E 001°51'1616.4
2015-Apr-12 02:33N 51°04' E 001°27'6 5.7
2015-Apr-12 01:34N 51°07' E 001°20'6 6.0
2015-Apr-12 00:34N 51°05' E 001°29'1414.2
2015-Apr-11 23:33N 50°58' E 001°49'1 1.2
2015-Apr-11 22:33N 50°58' E 001°51'1716.6
2015-Apr-11 21:34N 51°04' E 001°26'5 4.7
2015-Apr-11 20:29N 51°07' E 001°20'910.0
2015-Apr-11 19:33N 51°03' E 001°33'1212.4
2015-Apr-11 18:33N 50°58' E 001°51'3 3.1
2015-Apr-11 17:33N 50°58' E 001°46'1717.4
2015-Apr-11 16:33N 51°07' E 001°22'1 1.4
2015-Apr-11 15:32N 51°07' E 001°20'1616.8
2015-Apr-11 14:33N 50°59' E 001°43'5 5.2
2015-Apr-11 13:32N 50°58' E 001°51'1010.4
2015-Apr-11 12:33N 51°01' E 001°35'12 8.1
2015-Apr-11 11:07N 51°07' E 001°20'712.7
2015-Apr-11 10:33N 51°05' E 001°31'1514.6
2015-Apr-11 09:33N 50°58' E 001°51'2 2.4
2015-Apr-11 08:33N 50°58' E 001°47'1817.6
2015-Apr-11 07:33N 51°07' E 001°23'2 1.8
2015-Apr-11 06:31N 51°07' E 001°20'1212.0
2015-Apr-11 05:33N 51°02' E 001°36'10 9.6
2015-Apr-11 04:31N 50°58' E 001°51'2 2.0
2015-Apr-11 03:33N 50°58' E 001°48'1615.9
2015-Apr-11 02:33N 51°05' E 001°25'4 2.7
2015-Apr-11 01:06N 51°07' E 001°20'5 9.9
2015-Apr-11 00:34N 51°07' E 001°29'1414.1
2015-Apr-10 23:34N 50°58' E 001°46'3 2.8
2015-Apr-10 22:34N 50°58' E 001°50'1414.0
2015-Apr-10 21:33N 51°03' E 001°29'7 6.6
2015-Apr-10 20:27N 51°07' E 001°20'7 8.1
2015-Apr-10 19:33N 51°05' E 001°31'1514.8
2015-Apr-10 18:33N 50°58' E 001°52'3 2.9
2015-Apr-10 17:33N 50°58' E 001°47'1817.8
2015-Apr-10 16:34N 51°07' E 001°22'2 1.6
2015-Apr-10 15:33N 51°07' E 001°20'1717.5
2015-Apr-10 14:33N 50°58' E 001°44'4 4.2
2015-Apr-10 13:32N 50°58' E 001°51'1313.0
2015-Apr-10 12:33N 51°02' E 001°32'9 8.9
2015-Apr-10 11:32N 51°07' E 001°20'7 7.0
2015-Apr-10 10:33N 51°04' E 001°30'1514.8
2015-Apr-10 09:33N 50°58' E 001°51'2 2.3
2015-Apr-10 08:33N 50°58' E 001°47'1616.3
2015-Apr-10 07:34N 51°06' E 001°24'3 3.1
2015-Apr-10 06:33N 51°07' E 001°20'1010.5
2015-Apr-10 05:33N 51°03' E 001°35'1111.2
2015-Apr-10 04:33N 50°58' E 001°51'0 0.2
2015-Apr-10 03:33N 50°58' E 001°51'1717.4
2015-Apr-10 02:33N 51°04' E 001°25'4 4.0
2015-Apr-10 01:30N 51°07' E 001°20'4 4.2
2015-Apr-10 00:33N 51°06' E 001°26'1717.3
2015-Apr-09 23:34N 50°58' E 001°50'3 3.1
2015-Apr-09 22:33N 50°58' E 001°45'1818.0
2015-Apr-09 21:33N 51°07' E 001°21'2 1.7
2015-Apr-09 20:34N 51°07' E 001°24'1918.6
2015-Apr-09 19:34N 50°58' E 001°50'1 1.3
2015-Apr-09 18:34N 50°58' E 001°52'1313.3
2015-Apr-09 17:33N 51°01' E 001°31'9 8.5
2015-Apr-09 16:29N 51°07' E 001°20'4 4.9
2015-Apr-09 15:34N 51°07' E 001°27'1716.7
2015-Apr-09 14:34N 50°58' E 001°50'1 0.5
2015-Apr-09 13:33N 50°58' E 001°51'1414.0
2015-Apr-09 12:33N 51°03' E 001°30'8 6.8
2015-Apr-09 11:25N 51°07' E 001°20'1214.1
2015-Apr-09 10:33N 51°01' E 001°37'10 9.6
2015-Apr-09 09:33N 50°58' E 001°51'4 4.0
2015-Apr-09 08:34N 50°58' E 001°45'1716.7
2015-Apr-09 07:34N 51°07' E 001°22'1 1.4
2015-Apr-09 06:31N 51°07' E 001°20'1212.2
2015-Apr-09 05:33N 51°02' E 001°36'10 9.3
2015-Apr-09 04:29N 50°58' E 001°51'2 1.9
2015-Apr-09 03:33N 50°58' E 001°48'1817.7
2015-Apr-09 02:33N 51°06' E 001°23'2 1.9
2015-Apr-09 01:23N 51°07' E 001°20'810.0
2015-Apr-09 00:33N 51°07' E 001°33'  

Dump ship's entire track history